sensor_id;sensor_type;location;lat;lon;timestamp;P1;durP1;ratioP1;P2;durP2;ratioP2
15878;SDS011;61999;51.514;14.614;2023-01-28T00:02:03;8.30;;;5.47;;
15878;SDS011;61999;51.514;14.614;2023-01-28T00:04:31;9.63;;;6.03;;
15878;SDS011;61999;51.514;14.614;2023-01-28T00:06:59;9.10;;;5.53;;
15878;SDS011;61999;51.514;14.614;2023-01-28T00:09:27;11.67;;;7.00;;
15878;SDS011;61999;51.514;14.614;2023-01-28T00:11:55;8.57;;;5.47;;
15878;SDS011;61999;51.514;14.614;2023-01-28T00:14:24;6.83;;;5.10;;
15878;SDS011;61999;51.514;14.614;2023-01-28T00:16:52;6.77;;;4.87;;
15878;SDS011;61999;51.514;14.614;2023-01-28T00:19:30;6.37;;;4.97;;
15878;SDS011;61999;51.514;14.614;2023-01-28T00:21:58;8.53;;;5.73;;
15878;SDS011;61999;51.514;14.614;2023-01-28T00:24:27;8.30;;;5.83;;
15878;SDS011;61999;51.514;14.614;2023-01-28T00:26:55;10.10;;;8.60;;
15878;SDS011;61999;51.514;14.614;2023-01-28T00:29:23;12.00;;;10.70;;
15878;SDS011;61999;51.514;14.614;2023-01-28T00:31:51;9.10;;;7.17;;
15878;SDS011;61999;51.514;14.614;2023-01-28T00:34:19;7.90;;;4.93;;
15878;SDS011;61999;51.514;14.614;2023-01-28T00:36:49;6.53;;;5.13;;
15878;SDS011;61999;51.514;14.614;2023-01-28T00:39:23;6.60;;;4.87;;
15878;SDS011;61999;51.514;14.614;2023-01-28T00:41:52;5.37;;;4.23;;
15878;SDS011;61999;51.514;14.614;2023-01-28T00:44:20;6.27;;;4.20;;
15878;SDS011;61999;51.514;14.614;2023-01-28T00:46:48;5.20;;;4.40;;
15878;SDS011;61999;51.514;14.614;2023-01-28T00:49:16;6.77;;;4.97;;
15878;SDS011;61999;51.514;14.614;2023-01-28T00:51:44;5.80;;;4.57;;
15878;SDS011;61999;51.514;14.614;2023-01-28T00:54:15;5.27;;;4.30;;
15878;SDS011;61999;51.514;14.614;2023-01-28T00:56:43;6.03;;;4.13;;
15878;SDS011;61999;51.514;14.614;2023-01-28T00:59:11;5.57;;;4.00;;
15878;SDS011;61999;51.514;14.614;2023-01-28T01:01:39;6.20;;;4.67;;
15878;SDS011;61999;51.514;14.614;2023-01-28T01:04:07;6.97;;;4.37;;
15878;SDS011;61999;51.514;14.614;2023-01-28T01:06:36;5.40;;;4.53;;
15878;SDS011;61999;51.514;14.614;2023-01-28T01:09:07;6.93;;;4.93;;
15878;SDS011;61999;51.514;14.614;2023-01-28T01:11:39;7.10;;;4.60;;
15878;SDS011;61999;51.514;14.614;2023-01-28T01:14:08;5.60;;;4.40;;
15878;SDS011;61999;51.514;14.614;2023-01-28T01:16:37;6.63;;;4.97;;
15878;SDS011;61999;51.514;14.614;2023-01-28T01:19:05;8.07;;;4.53;;
15878;SDS011;61999;51.514;14.614;2023-01-28T01:21:34;5.67;;;4.40;;
15878;SDS011;61999;51.514;14.614;2023-01-28T01:24:02;7.00;;;5.30;;
15878;SDS011;61999;51.514;14.614;2023-01-28T01:26:31;6.60;;;5.23;;
15878;SDS011;61999;51.514;14.614;2023-01-28T01:29:00;6.57;;;4.97;;
15878;SDS011;61999;51.514;14.614;2023-01-28T01:31:28;7.40;;;4.73;;
15878;SDS011;61999;51.514;14.614;2023-01-28T01:33:56;6.47;;;4.80;;
15878;SDS011;61999;51.514;14.614;2023-01-28T01:36:24;7.07;;;5.37;;
15878;SDS011;61999;51.514;14.614;2023-01-28T01:38:52;7.03;;;4.67;;
15878;SDS011;61999;51.514;14.614;2023-01-28T01:41:24;6.27;;;4.83;;
15878;SDS011;61999;51.514;14.614;2023-01-28T01:43:57;6.83;;;5.07;;
15878;SDS011;61999;51.514;14.614;2023-01-28T01:46:31;6.30;;;4.63;;
15878;SDS011;61999;51.514;14.614;2023-01-28T01:49:11;8.57;;;5.30;;
15878;SDS011;61999;51.514;14.614;2023-01-28T01:51:45;8.43;;;5.63;;
15878;SDS011;61999;51.514;14.614;2023-01-28T01:54:18;7.07;;;5.23;;
15878;SDS011;61999;51.514;14.614;2023-01-28T01:56:50;8.33;;;5.13;;
15878;SDS011;61999;51.514;14.614;2023-01-28T01:59:20;7.07;;;4.87;;
15878;SDS011;61999;51.514;14.614;2023-01-28T02:01:54;5.80;;;4.57;;
15878;SDS011;61999;51.514;14.614;2023-01-28T02:04:25;6.83;;;4.53;;
15878;SDS011;61999;51.514;14.614;2023-01-28T02:06:58;8.00;;;5.17;;
15878;SDS011;61999;51.514;14.614;2023-01-28T02:09:28;7.17;;;5.17;;
15878;SDS011;61999;51.514;14.614;2023-01-28T02:12:00;6.63;;;4.67;;
15878;SDS011;61999;51.514;14.614;2023-01-28T02:14:35;7.47;;;5.17;;
15878;SDS011;61999;51.514;14.614;2023-01-28T02:17:11;6.60;;;5.40;;
15878;SDS011;61999;51.514;14.614;2023-01-28T02:19:42;7.77;;;5.23;;
15878;SDS011;61999;51.514;14.614;2023-01-28T02:22:24;7.20;;;5.03;;
15878;SDS011;61999;51.514;14.614;2023-01-28T02:25:33;5.53;;;4.83;;
15878;SDS011;61999;51.514;14.614;2023-01-28T02:28:32;5.43;;;4.73;;
15878;SDS011;61999;51.514;14.614;2023-01-28T02:31:07;7.37;;;5.87;;
15878;SDS011;61999;51.514;14.614;2023-01-28T02:33:43;7.00;;;6.03;;
15878;SDS011;61999;51.514;14.614;2023-01-28T02:36:24;6.03;;;4.90;;
15878;SDS011;61999;51.514;14.614;2023-01-28T02:39:12;6.77;;;5.97;;
15878;SDS011;61999;51.514;14.614;2023-01-28T02:41:47;7.40;;;5.83;;
15878;SDS011;61999;51.514;14.614;2023-01-28T02:44:24;7.17;;;6.07;;
15878;SDS011;61999;51.514;14.614;2023-01-28T02:46:52;5.80;;;4.87;;
15878;SDS011;61999;51.514;14.614;2023-01-28T02:49:39;6.27;;;5.17;;
15878;SDS011;61999;51.514;14.614;2023-01-28T02:55:37;6.83;;;5.40;;
15878;SDS011;61999;51.514;14.614;2023-01-28T02:58:13;7.70;;;5.73;;
15878;SDS011;61999;51.514;14.614;2023-01-28T03:00:56;5.53;;;4.93;;
15878;SDS011;61999;51.514;14.614;2023-01-28T03:03:36;6.70;;;5.13;;
15878;SDS011;61999;51.514;14.614;2023-01-28T03:06:19;6.10;;;5.43;;
15878;SDS011;61999;51.514;14.614;2023-01-28T03:08:55;6.53;;;5.70;;
15878;SDS011;61999;51.514;14.614;2023-01-28T03:11:46;5.87;;;5.07;;
15878;SDS011;61999;51.514;14.614;2023-01-28T03:14:38;7.07;;;5.30;;
15878;SDS011;61999;51.514;14.614;2023-01-28T03:17:27;8.07;;;5.47;;
15878;SDS011;61999;51.514;14.614;2023-01-28T03:20:23;6.80;;;5.43;;
15878;SDS011;61999;51.514;14.614;2023-01-28T03:23:13;6.23;;;5.03;;
15878;SDS011;61999;51.514;14.614;2023-01-28T03:26:06;6.10;;;5.07;;
15878;SDS011;61999;51.514;14.614;2023-01-28T03:28:56;7.30;;;5.47;;
15878;SDS011;61999;51.514;14.614;2023-01-28T03:31:50;8.00;;;5.53;;
15878;SDS011;61999;51.514;14.614;2023-01-28T03:34:41;8.53;;;5.33;;
15878;SDS011;61999;51.514;14.614;2023-01-28T03:37:28;6.97;;;5.43;;
15878;SDS011;61999;51.514;14.614;2023-01-28T03:40:00;6.30;;;5.13;;
15878;SDS011;61999;51.514;14.614;2023-01-28T03:42:31;7.17;;;5.77;;
15878;SDS011;61999;51.514;14.614;2023-01-28T03:44:59;5.93;;;5.20;;
15878;SDS011;61999;51.514;14.614;2023-01-28T03:47:30;5.67;;;4.83;;
15878;SDS011;61999;51.514;14.614;2023-01-28T03:50:00;7.50;;;5.53;;
15878;SDS011;61999;51.514;14.614;2023-01-28T03:52:31;6.67;;;5.40;;
15878;SDS011;61999;51.514;14.614;2023-01-28T03:55:00;6.63;;;5.10;;
15878;SDS011;61999;51.514;14.614;2023-01-28T03:57:38;7.43;;;5.23;;
15878;SDS011;61999;51.514;14.614;2023-01-28T04:00:07;5.50;;;4.87;;
15878;SDS011;61999;51.514;14.614;2023-01-28T04:02:36;7.00;;;5.23;;
15878;SDS011;61999;51.514;14.614;2023-01-28T04:05:08;6.97;;;5.23;;
15878;SDS011;61999;51.514;14.614;2023-01-28T04:07:38;6.03;;;4.40;;
15878;SDS011;61999;51.514;14.614;2023-01-28T04:10:06;5.83;;;4.53;;
15878;SDS011;61999;51.514;14.614;2023-01-28T04:12:47;5.27;;;4.33;;
15878;SDS011;61999;51.514;14.614;2023-01-28T04:15:18;5.83;;;4.50;;
15878;SDS011;61999;51.514;14.614;2023-01-28T04:17:49;5.83;;;4.33;;
15878;SDS011;61999;51.514;14.614;2023-01-28T04:20:18;5.63;;;4.60;;
15878;SDS011;61999;51.514;14.614;2023-01-28T04:22:46;7.47;;;4.70;;
15878;SDS011;61999;51.514;14.614;2023-01-28T04:25:17;5.43;;;4.70;;
15878;SDS011;61999;51.514;14.614;2023-01-28T04:31:45;4.70;;;4.20;;
15878;SDS011;61999;51.514;14.614;2023-01-28T04:34:13;4.83;;;4.03;;
15878;SDS011;61999;51.514;14.614;2023-01-28T04:36:44;5.00;;;4.43;;
15878;SDS011;61999;51.514;14.614;2023-01-28T04:39:13;5.30;;;4.47;;
15878;SDS011;61999;51.514;14.614;2023-01-28T04:41:41;6.43;;;4.67;;
15878;SDS011;61999;51.514;14.614;2023-01-28T04:44:09;5.03;;;4.43;;
15878;SDS011;61999;51.514;14.614;2023-01-28T04:46:38;5.33;;;4.67;;
15878;SDS011;61999;51.514;14.614;2023-01-28T04:49:06;4.43;;;3.73;;
15878;SDS011;61999;51.514;14.614;2023-01-28T04:51:35;4.73;;;4.00;;
15878;SDS011;61999;51.514;14.614;2023-01-28T04:54:05;4.97;;;4.17;;
15878;SDS011;61999;51.514;14.614;2023-01-28T04:56:33;6.80;;;4.00;;
15878;SDS011;61999;51.514;14.614;2023-01-28T04:59:01;5.00;;;3.73;;
15878;SDS011;61999;51.514;14.614;2023-01-28T05:01:29;4.30;;;3.83;;
15878;SDS011;61999;51.514;14.614;2023-01-28T05:03:57;4.23;;;3.80;;
15878;SDS011;61999;51.514;14.614;2023-01-28T05:06:30;5.10;;;3.60;;
15878;SDS011;61999;51.514;14.614;2023-01-28T05:08:58;4.43;;;3.37;;
15878;SDS011;61999;51.514;14.614;2023-01-28T05:11:28;4.60;;;3.97;;
15878;SDS011;61999;51.514;14.614;2023-01-28T05:13:56;4.97;;;3.93;;
15878;SDS011;61999;51.514;14.614;2023-01-28T05:16:24;4.87;;;3.97;;
15878;SDS011;61999;51.514;14.614;2023-01-28T05:18:52;4.97;;;3.83;;
15878;SDS011;61999;51.514;14.614;2023-01-28T05:21:20;4.33;;;3.27;;
15878;SDS011;61999;51.514;14.614;2023-01-28T05:23:48;5.50;;;3.87;;
15878;SDS011;61999;51.514;14.614;2023-01-28T05:26:16;6.40;;;3.60;;
15878;SDS011;61999;51.514;14.614;2023-01-28T05:28:45;3.70;;;3.40;;
15878;SDS011;61999;51.514;14.614;2023-01-28T05:31:13;3.50;;;3.20;;
15878;SDS011;61999;51.514;14.614;2023-01-28T05:33:41;4.30;;;3.77;;
15878;SDS011;61999;51.514;14.614;2023-01-28T05:36:09;3.47;;;3.17;;
15878;SDS011;61999;51.514;14.614;2023-01-28T05:38:37;3.30;;;3.00;;
15878;SDS011;61999;51.514;14.614;2023-01-28T05:41:05;4.93;;;3.33;;
15878;SDS011;61999;51.514;14.614;2023-01-28T05:43:33;4.83;;;3.80;;
15878;SDS011;61999;51.514;14.614;2023-01-28T05:46:12;4.13;;;3.57;;
15878;SDS011;61999;51.514;14.614;2023-01-28T05:48:52;4.10;;;3.00;;
15878;SDS011;61999;51.514;14.614;2023-01-28T05:51:21;4.27;;;3.73;;
15878;SDS011;61999;51.514;14.614;2023-01-28T05:53:49;3.77;;;3.17;;
15878;SDS011;61999;51.514;14.614;2023-01-28T05:56:16;3.87;;;3.27;;
15878;SDS011;61999;51.514;14.614;2023-01-28T05:58:45;4.33;;;3.73;;
15878;SDS011;61999;51.514;14.614;2023-01-28T06:01:14;4.67;;;3.57;;
15878;SDS011;61999;51.514;14.614;2023-01-28T06:03:42;3.60;;;3.30;;
15878;SDS011;61999;51.514;14.614;2023-01-28T06:06:10;6.03;;;3.30;;
15878;SDS011;61999;51.514;14.614;2023-01-28T06:08:38;5.37;;;3.63;;
15878;SDS011;61999;51.514;14.614;2023-01-28T06:11:08;5.00;;;3.63;;
15878;SDS011;61999;51.514;14.614;2023-01-28T06:13:36;4.20;;;3.40;;
15878;SDS011;61999;51.514;14.614;2023-01-28T06:16:04;4.33;;;3.63;;
15878;SDS011;61999;51.514;14.614;2023-01-28T06:18:34;3.50;;;3.20;;
15878;SDS011;61999;51.514;14.614;2023-01-28T06:21:02;5.03;;;3.17;;
15878;SDS011;61999;51.514;14.614;2023-01-28T06:23:30;4.60;;;3.30;;
15878;SDS011;61999;51.514;14.614;2023-01-28T06:28:54;4.20;;;3.37;;
15878;SDS011;61999;51.514;14.614;2023-01-28T06:31:22;4.37;;;3.20;;
15878;SDS011;61999;51.514;14.614;2023-01-28T06:33:52;3.60;;;3.30;;
15878;SDS011;61999;51.514;14.614;2023-01-28T06:36:20;3.40;;;3.10;;
15878;SDS011;61999;51.514;14.614;2023-01-28T06:38:48;4.40;;;3.10;;
15878;SDS011;61999;51.514;14.614;2023-01-28T06:41:16;2.80;;;2.60;;
15878;SDS011;61999;51.514;14.614;2023-01-28T06:43:44;4.17;;;2.60;;
15878;SDS011;61999;51.514;14.614;2023-01-28T06:46:12;3.33;;;3.03;;
15878;SDS011;61999;51.514;14.614;2023-01-28T06:48:40;2.83;;;2.60;;
15878;SDS011;61999;51.514;14.614;2023-01-28T06:51:09;3.13;;;2.50;;
15878;SDS011;61999;51.514;14.614;2023-01-28T06:53:37;3.10;;;2.80;;
15878;SDS011;61999;51.514;14.614;2023-01-28T06:56:06;3.20;;;2.90;;
15878;SDS011;61999;51.514;14.614;2023-01-28T06:58:34;4.67;;;3.60;;
15878;SDS011;61999;51.514;14.614;2023-01-28T07:01:02;3.83;;;2.90;;
15878;SDS011;61999;51.514;14.614;2023-01-28T07:03:31;5.00;;;2.67;;
15878;SDS011;61999;51.514;14.614;2023-01-28T07:05:59;4.87;;;3.40;;
15878;SDS011;61999;51.514;14.614;2023-01-28T07:08:28;3.50;;;3.17;;
15878;SDS011;61999;51.514;14.614;2023-01-28T07:10:56;3.20;;;2.90;;
15878;SDS011;61999;51.514;14.614;2023-01-28T07:13:24;3.70;;;3.03;;
15878;SDS011;61999;51.514;14.614;2023-01-28T07:15:53;3.33;;;2.80;;
15878;SDS011;61999;51.514;14.614;2023-01-28T07:18:21;3.13;;;2.83;;
15878;SDS011;61999;51.514;14.614;2023-01-28T07:20:49;3.37;;;2.90;;
15878;SDS011;61999;51.514;14.614;2023-01-28T07:23:17;3.53;;;2.90;;
15878;SDS011;61999;51.514;14.614;2023-01-28T07:25:46;3.40;;;2.80;;
15878;SDS011;61999;51.514;14.614;2023-01-28T07:28:15;3.27;;;2.97;;
15878;SDS011;61999;51.514;14.614;2023-01-28T07:30:47;3.30;;;2.60;;
15878;SDS011;61999;51.514;14.614;2023-01-28T07:33:22;3.77;;;2.47;;
15878;SDS011;61999;51.514;14.614;2023-01-28T07:35:50;3.97;;;2.67;;
15878;SDS011;61999;51.514;14.614;2023-01-28T07:38:18;2.80;;;2.60;;
15878;SDS011;61999;51.514;14.614;2023-01-28T07:40:47;3.13;;;2.83;;
15878;SDS011;61999;51.514;14.614;2023-01-28T07:43:15;3.30;;;3.00;;
15878;SDS011;61999;51.514;14.614;2023-01-28T07:45:43;3.60;;;3.27;;
15878;SDS011;61999;51.514;14.614;2023-01-28T07:48:13;4.27;;;3.17;;
15878;SDS011;61999;51.514;14.614;2023-01-28T07:50:42;4.30;;;3.20;;
15878;SDS011;61999;51.514;14.614;2023-01-28T07:53:10;2.90;;;2.70;;
15878;SDS011;61999;51.514;14.614;2023-01-28T07:55:38;3.20;;;2.50;;
15878;SDS011;61999;51.514;14.614;2023-01-28T07:58:08;3.03;;;2.77;;
15878;SDS011;61999;51.514;14.614;2023-01-28T08:00:42;3.27;;;2.83;;
15878;SDS011;61999;51.514;14.614;2023-01-28T08:03:11;3.43;;;2.40;;
15878;SDS011;61999;51.514;14.614;2023-01-28T08:05:44;5.60;;;4.30;;
15878;SDS011;61999;51.514;14.614;2023-01-28T08:08:18;6.07;;;3.60;;
15878;SDS011;61999;51.514;14.614;2023-01-28T08:10:46;4.00;;;2.93;;
15878;SDS011;61999;51.514;14.614;2023-01-28T08:13:16;3.47;;;3.17;;
15878;SDS011;61999;51.514;14.614;2023-01-28T08:15:45;4.87;;;3.20;;
15878;SDS011;61999;51.514;14.614;2023-01-28T08:18:14;6.53;;;4.70;;
15878;SDS011;61999;51.514;14.614;2023-01-28T08:20:43;4.73;;;4.27;;
15878;SDS011;61999;51.514;14.614;2023-01-28T08:23:13;3.97;;;3.57;;
15878;SDS011;61999;51.514;14.614;2023-01-28T08:25:44;3.37;;;3.07;;
15878;SDS011;61999;51.514;14.614;2023-01-28T08:28:14;5.23;;;3.90;;
15878;SDS011;61999;51.514;14.614;2023-01-28T08:30:45;4.60;;;3.97;;
15878;SDS011;61999;51.514;14.614;2023-01-28T08:33:14;4.33;;;3.53;;
15878;SDS011;61999;51.514;14.614;2023-01-28T08:35:44;4.70;;;3.70;;
15878;SDS011;61999;51.514;14.614;2023-01-28T08:38:12;5.07;;;4.20;;
15878;SDS011;61999;51.514;14.614;2023-01-28T08:40:42;6.83;;;4.53;;
15878;SDS011;61999;51.514;14.614;2023-01-28T08:43:10;4.97;;;4.30;;
15878;SDS011;61999;51.514;14.614;2023-01-28T08:45:40;5.20;;;3.80;;
15878;SDS011;61999;51.514;14.614;2023-01-28T08:48:09;6.13;;;4.97;;
15878;SDS011;61999;51.514;14.614;2023-01-28T08:50:42;5.23;;;4.20;;
15878;SDS011;61999;51.514;14.614;2023-01-28T08:53:14;5.63;;;4.47;;
15878;SDS011;61999;51.514;14.614;2023-01-28T08:55:44;4.20;;;3.83;;
15878;SDS011;61999;51.514;14.614;2023-01-28T08:58:13;5.37;;;4.67;;
15878;SDS011;61999;51.514;14.614;2023-01-28T09:00:45;7.00;;;5.47;;
15878;SDS011;61999;51.514;14.614;2023-01-28T09:03:14;4.83;;;3.77;;
15878;SDS011;61999;51.514;14.614;2023-01-28T09:05:43;5.70;;;4.13;;
15878;SDS011;61999;51.514;14.614;2023-01-28T09:08:12;4.53;;;4.00;;
15878;SDS011;61999;51.514;14.614;2023-01-28T09:10:42;6.47;;;4.67;;
15878;SDS011;61999;51.514;14.614;2023-01-28T09:13:11;5.43;;;4.63;;
15878;SDS011;61999;51.514;14.614;2023-01-28T09:15:41;5.20;;;4.43;;
15878;SDS011;61999;51.514;14.614;2023-01-28T09:18:11;6.20;;;5.50;;
15878;SDS011;61999;51.514;14.614;2023-01-28T09:20:39;5.37;;;4.40;;
15878;SDS011;61999;51.514;14.614;2023-01-28T09:23:07;5.33;;;4.50;;
15878;SDS011;61999;51.514;14.614;2023-01-28T09:25:36;6.90;;;4.53;;
15878;SDS011;61999;51.514;14.614;2023-01-28T09:28:04;4.40;;;4.00;;
15878;SDS011;61999;51.514;14.614;2023-01-28T09:30:33;4.83;;;3.73;;
15878;SDS011;61999;51.514;14.614;2023-01-28T09:33:03;5.57;;;4.10;;
15878;SDS011;61999;51.514;14.614;2023-01-28T09:35:33;3.80;;;3.50;;
15878;SDS011;61999;51.514;14.614;2023-01-28T09:38:02;6.37;;;3.53;;
15878;SDS011;61999;51.514;14.614;2023-01-28T09:40:31;3.97;;;3.20;;
15878;SDS011;61999;51.514;14.614;2023-01-28T09:43:11;3.73;;;3.40;;
15878;SDS011;61999;51.514;14.614;2023-01-28T09:46:09;3.50;;;3.20;;
15878;SDS011;61999;51.514;14.614;2023-01-28T09:48:41;4.00;;;3.60;;
15878;SDS011;61999;51.514;14.614;2023-01-28T09:51:25;3.17;;;2.87;;
15878;SDS011;61999;51.514;14.614;2023-01-28T09:54:03;4.83;;;4.07;;
15878;SDS011;61999;51.514;14.614;2023-01-28T09:56:45;4.30;;;3.10;;
15878;SDS011;61999;51.514;14.614;2023-01-28T09:59:18;3.50;;;3.20;;
15878;SDS011;61999;51.514;14.614;2023-01-28T10:01:52;3.43;;;3.00;;
15878;SDS011;61999;51.514;14.614;2023-01-28T10:04:34;20.50;;;14.47;;
15878;SDS011;61999;51.514;14.614;2023-01-28T10:07:21;10.03;;;7.27;;
15878;SDS011;61999;51.514;14.614;2023-01-28T10:10:01;5.13;;;4.50;;
15878;SDS011;61999;51.514;14.614;2023-01-28T10:12:38;4.43;;;3.77;;
15878;SDS011;61999;51.514;14.614;2023-01-28T10:15:45;4.27;;;3.27;;
15878;SDS011;61999;51.514;14.614;2023-01-28T10:18:30;5.60;;;4.20;;
15878;SDS011;61999;51.514;14.614;2023-01-28T10:21:07;5.67;;;3.87;;
15878;SDS011;61999;51.514;14.614;2023-01-28T10:23:50;5.63;;;4.30;;
15878;SDS011;61999;51.514;14.614;2023-01-28T10:26:32;5.30;;;3.60;;
15878;SDS011;61999;51.514;14.614;2023-01-28T10:29:08;3.57;;;2.87;;
15878;SDS011;61999;51.514;14.614;2023-01-28T10:31:46;3.37;;;2.90;;
15878;SDS011;61999;51.514;14.614;2023-01-28T10:34:20;3.90;;;3.23;;
15878;SDS011;61999;51.514;14.614;2023-01-28T10:36:49;2.40;;;2.17;;
15878;SDS011;61999;51.514;14.614;2023-01-28T10:39:20;3.17;;;2.40;;
15878;SDS011;61999;51.514;14.614;2023-01-28T10:41:51;5.67;;;2.90;;
15878;SDS011;61999;51.514;14.614;2023-01-28T10:44:29;3.70;;;2.70;;
15878;SDS011;61999;51.514;14.614;2023-01-28T10:47:03;2.50;;;2.30;;
15878;SDS011;61999;51.514;14.614;2023-01-28T10:49:40;2.93;;;2.50;;
15878;SDS011;61999;51.514;14.614;2023-01-28T10:52:14;2.63;;;2.37;;
15878;SDS011;61999;51.514;14.614;2023-01-28T10:54:45;2.50;;;2.30;;
15878;SDS011;61999;51.514;14.614;2023-01-28T10:57:13;2.40;;;2.20;;
15878;SDS011;61999;51.514;14.614;2023-01-28T10:59:45;2.30;;;2.10;;
15878;SDS011;61999;51.514;14.614;2023-01-28T11:02:19;4.13;;;2.33;;
15878;SDS011;61999;51.514;14.614;2023-01-28T11:05:00;3.07;;;2.13;;
15878;SDS011;61999;51.514;14.614;2023-01-28T11:07:32;2.87;;;2.10;;
15878;SDS011;61999;51.514;14.614;2023-01-28T11:10:01;3.77;;;2.63;;
15878;SDS011;61999;51.514;14.614;2023-01-28T11:12:30;4.17;;;2.63;;
15878;SDS011;61999;51.514;14.614;2023-01-28T11:14:58;3.23;;;2.50;;
15878;SDS011;61999;51.514;14.614;2023-01-28T11:17:29;5.03;;;2.90;;
15878;SDS011;61999;51.514;14.614;2023-01-28T11:20:08;4.43;;;3.20;;
15878;SDS011;61999;51.514;14.614;2023-01-28T11:22:45;3.97;;;2.70;;
15878;SDS011;61999;51.514;14.614;2023-01-28T11:25:17;3.10;;;2.37;;
15878;SDS011;61999;51.514;14.614;2023-01-28T11:27:53;1.63;;;1.53;;
15878;SDS011;61999;51.514;14.614;2023-01-28T11:30:22;1.90;;;1.80;;
15878;SDS011;61999;51.514;14.614;2023-01-28T11:32:55;4.17;;;2.40;;
15878;SDS011;61999;51.514;14.614;2023-01-28T11:35:28;5.33;;;3.90;;
15878;SDS011;61999;51.514;14.614;2023-01-28T11:37:57;8.13;;;5.57;;
15878;SDS011;61999;51.514;14.614;2023-01-28T11:40:28;8.77;;;6.33;;
15878;SDS011;61999;51.514;14.614;2023-01-28T11:42:56;6.30;;;5.30;;
15878;SDS011;61999;51.514;14.614;2023-01-28T11:45:28;7.13;;;5.00;;
15878;SDS011;61999;51.514;14.614;2023-01-28T11:48:17;3.23;;;2.07;;
15878;SDS011;61999;51.514;14.614;2023-01-28T11:51:02;3.43;;;2.70;;
15878;SDS011;61999;51.514;14.614;2023-01-28T11:53:52;4.30;;;3.17;;
15878;SDS011;61999;51.514;14.614;2023-01-28T11:57:00;7.90;;;5.20;;
15878;SDS011;61999;51.514;14.614;2023-01-28T11:59:50;4.13;;;2.50;;
15878;SDS011;61999;51.514;14.614;2023-01-28T12:02:42;2.83;;;2.10;;
15878;SDS011;61999;51.514;14.614;2023-01-28T12:05:28;3.67;;;3.20;;
15878;SDS011;61999;51.514;14.614;2023-01-28T12:08:32;2.53;;;2.23;;
15878;SDS011;61999;51.514;14.614;2023-01-28T12:11:12;2.93;;;2.30;;
15878;SDS011;61999;51.514;14.614;2023-01-28T12:14:12;6.43;;;4.23;;
15878;SDS011;61999;51.514;14.614;2023-01-28T12:16:59;8.67;;;4.40;;
15878;SDS011;61999;51.514;14.614;2023-01-28T12:19:49;7.27;;;5.00;;
15878;SDS011;61999;51.514;14.614;2023-01-28T12:22:38;6.33;;;4.43;;
15878;SDS011;61999;51.514;14.614;2023-01-28T12:25:48;14.37;;;8.80;;
15878;SDS011;61999;51.514;14.614;2023-01-28T12:28:36;5.97;;;4.07;;
15878;SDS011;61999;51.514;14.614;2023-01-28T12:31:29;7.30;;;6.13;;
15878;SDS011;61999;51.514;14.614;2023-01-28T12:34:23;10.90;;;9.23;;
15878;SDS011;61999;51.514;14.614;2023-01-28T12:37:15;6.80;;;5.73;;
15878;SDS011;61999;51.514;14.614;2023-01-28T12:40:01;5.30;;;4.37;;
15878;SDS011;61999;51.514;14.614;2023-01-28T12:42:43;3.20;;;2.90;;
15878;SDS011;61999;51.514;14.614;2023-01-28T12:45:18;4.33;;;3.87;;
15878;SDS011;61999;51.514;14.614;2023-01-28T12:47:56;3.83;;;3.50;;
15878;SDS011;61999;51.514;14.614;2023-01-28T12:50:32;3.50;;;3.20;;
15878;SDS011;61999;51.514;14.614;2023-01-28T12:53:10;3.77;;;3.37;;
15878;SDS011;61999;51.514;14.614;2023-01-28T12:55:50;4.90;;;3.87;;
15878;SDS011;61999;51.514;14.614;2023-01-28T12:58:29;5.83;;;4.13;;
15878;SDS011;61999;51.514;14.614;2023-01-28T13:01:08;4.57;;;3.43;;
15878;SDS011;61999;51.514;14.614;2023-01-28T13:03:47;3.47;;;2.80;;
15878;SDS011;61999;51.514;14.614;2023-01-28T13:06:23;3.60;;;3.00;;
15878;SDS011;61999;51.514;14.614;2023-01-28T13:08:57;3.90;;;3.50;;
15878;SDS011;61999;51.514;14.614;2023-01-28T13:11:36;5.23;;;3.27;;
15878;SDS011;61999;51.514;14.614;2023-01-28T13:14:05;4.53;;;3.07;;
15878;SDS011;61999;51.514;14.614;2023-01-28T13:16:38;2.97;;;2.77;;
15878;SDS011;61999;51.514;14.614;2023-01-28T13:19:10;3.60;;;2.93;;
15878;SDS011;61999;51.514;14.614;2023-01-28T13:22:08;3.37;;;3.07;;
15878;SDS011;61999;51.514;14.614;2023-01-28T13:24:39;3.07;;;2.70;;
15878;SDS011;61999;51.514;14.614;2023-01-28T13:27:11;4.73;;;3.10;;
15878;SDS011;61999;51.514;14.614;2023-01-28T13:29:59;4.03;;;3.30;;
15878;SDS011;61999;51.514;14.614;2023-01-28T13:32:32;7.83;;;4.13;;
15878;SDS011;61999;51.514;14.614;2023-01-28T13:35:04;11.10;;;6.67;;
15878;SDS011;61999;51.514;14.614;2023-01-28T13:37:49;11.37;;;5.93;;
15878;SDS011;61999;51.514;14.614;2023-01-28T13:40:21;4.27;;;3.40;;
15878;SDS011;61999;51.514;14.614;2023-01-28T13:42:57;3.27;;;2.97;;
15878;SDS011;61999;51.514;14.614;2023-01-28T13:45:28;4.20;;;2.80;;
15878;SDS011;61999;51.514;14.614;2023-01-28T13:47:59;2.97;;;2.53;;
15878;SDS011;61999;51.514;14.614;2023-01-28T13:50:46;3.90;;;3.00;;
15878;SDS011;61999;51.514;14.614;2023-01-28T13:53:21;3.10;;;2.60;;
15878;SDS011;61999;51.514;14.614;2023-01-28T13:56:03;3.50;;;2.90;;
15878;SDS011;61999;51.514;14.614;2023-01-28T14:01:55;4.53;;;2.70;;
15878;SDS011;61999;51.514;14.614;2023-01-28T14:05:31;2.60;;;2.40;;
15878;SDS011;61999;51.514;14.614;2023-01-28T14:08:42;4.43;;;3.00;;
15878;SDS011;61999;51.514;14.614;2023-01-28T14:11:52;4.10;;;2.77;;
15878;SDS011;61999;51.514;14.614;2023-01-28T14:15:02;3.27;;;2.70;;
15878;SDS011;61999;51.514;14.614;2023-01-28T14:17:48;4.50;;;3.10;;
15878;SDS011;61999;51.514;14.614;2023-01-28T14:20:21;3.83;;;2.93;;
15878;SDS011;61999;51.514;14.614;2023-01-28T14:22:56;3.20;;;2.90;;
15878;SDS011;61999;51.514;14.614;2023-01-28T14:25:28;3.43;;;2.97;;
15878;SDS011;61999;51.514;14.614;2023-01-28T14:28:08;4.67;;;2.67;;
15878;SDS011;61999;51.514;14.614;2023-01-28T14:30:46;3.23;;;2.93;;
15878;SDS011;61999;51.514;14.614;2023-01-28T14:33:22;3.27;;;2.97;;
15878;SDS011;61999;51.514;14.614;2023-01-28T14:35:50;3.20;;;2.90;;
15878;SDS011;61999;51.514;14.614;2023-01-28T14:38:20;4.23;;;3.23;;
15878;SDS011;61999;51.514;14.614;2023-01-28T14:40:50;4.47;;;3.10;;
15878;SDS011;61999;51.514;14.614;2023-01-28T14:43:22;5.17;;;3.20;;
15878;SDS011;61999;51.514;14.614;2023-01-28T14:45:57;4.53;;;3.00;;
15878;SDS011;61999;51.514;14.614;2023-01-28T14:48:44;4.33;;;3.70;;
15878;SDS011;61999;51.514;14.614;2023-01-28T14:51:43;4.50;;;3.37;;
15878;SDS011;61999;51.514;14.614;2023-01-28T14:54:34;4.20;;;3.77;;
15878;SDS011;61999;51.514;14.614;2023-01-28T14:57:27;3.40;;;3.07;;
15878;SDS011;61999;51.514;14.614;2023-01-28T15:00:19;4.07;;;3.67;;
15878;SDS011;61999;51.514;14.614;2023-01-28T15:02:56;5.20;;;3.70;;
15878;SDS011;61999;51.514;14.614;2023-01-28T15:05:26;3.77;;;3.37;;
15878;SDS011;61999;51.514;14.614;2023-01-28T15:07:58;5.30;;;3.10;;
15878;SDS011;61999;51.514;14.614;2023-01-28T15:10:30;3.17;;;2.90;;
15878;SDS011;61999;51.514;14.614;2023-01-28T15:13:05;3.00;;;2.70;;
15878;SDS011;61999;51.514;14.614;2023-01-28T15:15:40;3.40;;;3.10;;
15878;SDS011;61999;51.514;14.614;2023-01-28T15:18:15;12.10;;;8.03;;
15878;SDS011;61999;51.514;14.614;2023-01-28T15:20:47;8.53;;;3.60;;
15878;SDS011;61999;51.514;14.614;2023-01-28T15:23:21;7.47;;;5.67;;
15878;SDS011;61999;51.514;14.614;2023-01-28T15:26:04;6.33;;;4.87;;
15878;SDS011;61999;51.514;14.614;2023-01-28T15:28:34;4.63;;;3.87;;
15878;SDS011;61999;51.514;14.614;2023-01-28T15:31:05;3.30;;;2.77;;